Time;durP1;ratioP1;P1;durP2;ratioP2;P2;SDS_P1;SDS_P2;PMS_P1;PMS_P2;Temp;Humidity;BMP_temperature;BMP_pressure;BME280_temperature;BME280_humidity;BME280_pressure;Samples;Min_cycle;Max_cycle;Signal;HPM_P1;HPM_P2
2023/04/13 00:01:31;;;;;;;9.35;3.15;;;5.00;99.90;;;;;;5108903;27;20038;-90
2023/04/13 00:04:01;;;;;;;8.02;3.03;;;5.00;99.90;;;;;;5118349;27;20078;-91
2023/04/13 00:06:28;;;;;;;5.68;2.70;;;5.00;99.90;;;;;;5118016;27;20099;-91
2023/04/13 00:08:54;;;;;;;7.47;3.00;;;5.80;99.90;;;;;;5114357;27;20039;-91
2023/04/13 00:11:20;;;;;;;7.43;3.17;;;5.30;99.90;;;;;;5108522;27;20107;-90
2023/04/13 00:13:46;;;;;;;8.98;3.65;;;5.70;99.90;;;;;;5118821;27;20039;-90
2023/04/13 00:16:14;;;;;;;6.03;3.20;;;5.50;99.90;;;;;;5106380;27;20122;-90
2023/04/13 00:18:41;;;;;;;6.50;3.53;;;5.70;99.90;;;;;;5116649;27;20039;-91
2023/04/13 00:21:07;;;;;;;7.20;3.28;;;5.50;99.90;;;;;;5118523;27;20200;-91
2023/04/13 00:23:34;;;;;;;7.80;3.38;;;5.00;99.90;;;;;;5117236;27;20225;-92
2023/04/13 00:26:00;;;;;;;5.97;3.53;;;6.00;99.90;;;;;;5118795;27;20049;-91
2023/04/13 00:28:28;;;;;;;8.00;3.17;;;5.70;99.90;;;;;;5118129;27;20085;-91
2023/04/13 00:30:54;;;;;;;6.72;3.45;;;5.20;99.90;;;;;;5105324;27;20043;-91
2023/04/13 00:33:20;;;;;;;5.88;3.50;;;5.30;99.90;;;;;;5117019;27;20043;-90
2023/04/13 00:35:46;;;;;;;13.63;3.15;;;5.40;99.90;;;;;;5117313;27;20054;-90
2023/04/13 00:38:11;;;;;;;7.20;3.38;;;5.50;99.90;;;;;;5117650;27;20111;-91
2023/04/13 00:40:37;;;;;;;8.07;3.85;;;5.60;99.90;;;;;;5117227;27;20456;-92
2023/04/13 00:43:04;;;;;;;6.75;3.50;;;6.20;99.90;;;;;;5113227;27;20045;-91
2023/04/13 00:45:37;;;;;;;6.82;3.72;;;5.90;99.90;;;;;;5109132;27;20817;-91
2023/04/13 00:48:04;;;;;;;6.95;3.70;;;5.60;99.90;;;;;;5118373;27;20538;-91
2023/04/13 00:50:32;;;;;;;6.10;3.88;;;5.50;99.90;;;;;;5104015;27;20525;-92
2023/04/13 00:52:59;;;;;;;8.13;3.55;;;5.50;99.90;;;;;;5096851;27;20099;-92
2023/04/13 00:55:26;;;;;;;6.75;3.88;;;5.80;99.90;;;;;;5110956;27;20077;-91
2023/04/13 00:57:52;;;;;;;7.70;3.83;;;6.40;99.90;;;;;;5110517;27;20035;-91
2023/04/13 01:00:18;;;;;;;7.55;3.67;;;5.70;99.90;;;;;;5097582;27;20027;-91
2023/04/13 01:02:44;;;;;;;7.90;3.85;;;5.60;99.90;;;;;;5105351;27;20085;-91
2023/04/13 01:05:11;;;;;;;10.48;4.10;;;6.30;99.90;;;;;;5106405;27;20031;-90
2023/04/13 01:07:56;;;;;;;6.57;3.83;;;5.70;99.90;;;;;;5102996;27;20489;-92
2023/04/13 01:10:39;;;;;;;7.90;3.55;;;5.70;99.90;;;;;;5113526;27;20063;-92
2023/04/13 01:13:09;;;;;;;8.55;3.55;;;5.80;99.90;;;;;;5108729;27;20431;-91
2023/04/13 01:15:40;;;;;;;9.73;4.32;;;5.90;99.90;;;;;;5116793;27;20047;-90
2023/04/13 01:18:08;;;;;;;6.50;3.90;;;5.90;99.90;;;;;;5116976;27;20046;-90
2023/04/13 01:20:37;;;;;;;6.68;4.32;;;5.90;99.90;;;;;;5094882;27;20047;-90
2023/04/13 01:23:08;;;;;;;8.15;4.53;;;5.90;99.90;;;;;;5110148;27;20042;-90
2023/04/13 01:25:50;;;;;;;10.25;5.25;;;5.90;99.90;;;;;;5106837;27;20050;-90
2023/04/13 01:28:18;;;;;;;8.70;5.03;;;5.90;99.90;;;;;;5112128;27;20129;-90
2023/04/13 01:30:46;;;;;;;8.35;5.15;;;5.90;99.90;;;;;;5105071;27;20043;-90
2023/04/13 01:33:12;;;;;;;8.93;4.90;;;6.20;99.90;;;;;;5114550;27;20092;-90
2023/04/13 01:35:38;;;;;;;9.52;5.15;;;5.80;99.90;;;;;;5115060;27;20095;-92
2023/04/13 01:38:06;;;;;;;8.60;4.40;;;6.10;99.90;;;;;;5112463;27;20047;-91
2023/04/13 01:40:33;;;;;;;8.45;4.20;;;6.00;99.90;;;;;;5107899;27;20052;-92
2023/04/13 01:43:00;;;;;;;8.02;4.32;;;5.70;99.90;;;;;;5102708;27;20030;-91
2023/04/13 01:45:30;;;;;;;8.40;4.22;;;5.70;99.90;;;;;;5116211;27;20511;-92
2023/04/13 01:48:03;;;;;;;8.45;3.55;;;6.10;99.90;;;;;;5116262;27;20031;-92
2023/04/13 01:50:32;;;;;;;;;;;5.80;99.90;;;;;;5102655;27;20057;-92
2023/04/13 01:53:06;;;;;;;7.15;3.50;;;5.70;99.90;;;;;;5096389;27;19927;-91
2023/04/13 01:55:40;;;;;;;7.03;2.90;;;5.70;99.90;;;;;;5094903;27;20040;-91
2023/04/13 01:58:09;;;;;;;7.13;2.80;;;6.00;99.90;;;;;;5096168;27;20111;-91
2023/04/13 02:00:35;;;;;;;7.07;2.90;;;5.70;99.90;;;;;;5109733;27;20066;-92
2023/04/13 02:03:05;;;;;;;7.88;3.08;;;5.90;99.90;;;;;;5096126;27;20414;-91
2023/04/13 02:05:32;;;;;;;5.25;2.50;;;5.70;99.90;;;;;;5098274;27;20038;-91
2023/04/13 02:07:59;;;;;;;5.40;2.58;;;5.70;99.90;;;;;;5116041;27;20042;-93
2023/04/13 02:10:25;;;;;;;8.15;2.50;;;5.70;99.90;;;;;;5115101;27;20074;-92
2023/04/13 02:12:53;;;;;;;6.72;2.60;;;5.70;99.90;;;;;;5106216;27;20049;-92
2023/04/13 02:15:19;;;;;;;6.70;2.75;;;5.70;99.90;;;;;;5099084;27;20501;-92
2023/04/13 02:17:45;;;;;;;6.35;2.80;;;5.70;99.90;;;;;;5104735;27;20127;-93
2023/04/13 02:20:11;;;;;;;7.35;2.47;;;6.00;99.90;;;;;;5095780;27;20113;-93
2023/04/13 02:22:38;;;;;;;5.18;2.38;;;5.80;99.90;;;;;;5112558;27;20047;-93
2023/04/13 02:25:07;;;;;;;4.53;2.35;;;5.70;99.90;;;;;;5095756;27;20035;-91
2023/04/13 02:27:34;;;;;;;6.65;2.38;;;5.70;99.90;;;;;;5095022;27;20095;-93
2023/04/13 02:30:01;;;;;;;4.78;2.10;;;5.70;99.90;;;;;;5109183;27;20047;-93
2023/04/13 02:32:28;;;;;;;7.63;2.65;;;6.30;99.90;;;;;;5095289;28;20084;-92
2023/04/13 02:34:54;;;;;;;6.75;3.13;;;5.70;99.90;;;;;;5109428;28;20104;-91
2023/04/13 02:37:20;;;;;;;5.10;2.00;;;6.50;99.90;;;;;;5093287;28;20047;-92
2023/04/13 02:39:46;;;;;;;7.60;2.08;;;5.80;99.90;;;;;;5118747;27;20553;-92
2023/04/13 02:42:11;;;;;;;7.13;2.30;;;6.00;99.90;;;;;;5115535;27;20050;-91
2023/04/13 02:44:37;;;;;;;5.80;2.20;;;5.20;99.90;;;;;;5095916;28;20039;-92
2023/04/13 02:47:04;;;;;;;5.63;1.98;;;6.10;99.90;;;;;;5108202;27;20216;-92
2023/04/13 02:49:29;;;;;;;5.70;2.35;;;5.70;99.90;;;;;;5096099;28;20469;-91
2023/04/13 02:51:55;;;;;;;4.72;1.88;;;6.20;99.90;;;;;;5094481;28;20103;-91
2023/04/13 02:54:21;;;;;;;10.55;2.13;;;6.60;99.90;;;;;;5101028;27;20050;-92
2023/04/13 02:56:48;;;;;;;5.03;2.17;;;5.90;99.90;;;;;;5115920;27;20382;-92
2023/04/13 02:59:15;;;;;;;5.35;2.20;;;6.30;99.90;;;;;;5101547;27;20535;-92
2023/04/13 03:01:41;;;;;;;4.60;1.80;;;5.80;99.90;;;;;;5115238;27;20095;-92
2023/04/13 03:04:07;;;;;;;5.70;2.00;;;6.30;99.90;;;;;;5095996;28;20031;-92
2023/04/13 03:06:33;;;;;;;5.15;2.15;;;5.70;99.90;;;;;;5105474;27;20137;-92
2023/04/13 03:09:00;;;;;;;8.07;2.47;;;5.70;99.90;;;;;;5101500;27;20504;-91
2023/04/13 03:11:26;;;;;;;4.43;1.52;;;6.10;99.90;;;;;;5115674;27;20054;-92
2023/04/13 03:13:53;;;;;;;5.05;1.65;;;6.10;99.90;;;;;;5101839;27;20066;-92
2023/04/13 03:16:20;;;;;;;4.18;1.67;;;5.70;99.90;;;;;;5107304;28;20126;-91
2023/04/13 03:18:46;;;;;;;4.28;1.80;;;5.90;99.90;;;;;;5114628;27;20103;-91
2023/04/13 03:21:11;;;;;;;4.57;1.65;;;6.00;99.90;;;;;;5102109;28;20070;-91
2023/04/13 03:23:37;;;;;;;7.22;1.77;;;6.20;99.90;;;;;;5114390;27;20050;-91
2023/04/13 03:26:03;;;;;;;3.47;1.58;;;5.70;99.90;;;;;;5115838;27;20030;-91
2023/04/13 03:28:29;;;;;;;4.85;1.75;;;5.70;99.90;;;;;;5098613;27;20498;-91
2023/04/13 03:30:55;;;;;;;6.35;2.45;;;5.70;99.90;;;;;;5128026;27;20058;-91
2023/04/13 03:33:21;;;;;;;4.78;2.03;;;6.10;99.90;;;;;;5113029;27;20114;-92
2023/04/13 03:35:46;;;;;;;6.70;1.92;;;5.90;99.90;;;;;;5098936;27;20542;-92
2023/04/13 03:38:12;;;;;;;5.93;1.77;;;6.30;99.90;;;;;;5117033;27;20447;-91
2023/04/13 03:40:38;;;;;;;3.60;1.83;;;6.00;99.90;;;;;;5118664;27;20062;-92
2023/04/13 03:43:03;;;;;;;3.25;1.58;;;5.80;99.90;;;;;;5119318;27;20080;-92
2023/04/13 03:45:29;;;;;;;7.88;1.70;;;5.80;99.90;;;;;;5106442;27;20085;-91
2023/04/13 03:47:55;;;;;;;5.35;1.77;;;5.90;99.90;;;;;;5117376;27;20394;-92
2023/04/13 03:50:21;;;;;;;4.65;1.98;;;5.90;99.90;;;;;;5106364;27;20035;-92
2023/04/13 03:52:46;;;;;;;6.72;1.95;;;5.80;99.90;;;;;;5104734;27;20126;-91
2023/04/13 03:55:12;;;;;;;7.50;1.80;;;5.80;99.90;;;;;;5112829;27;20534;-91
2023/04/13 03:57:38;;;;;;;5.82;2.00;;;5.80;99.90;;;;;;5098992;27;20031;-91
2023/04/13 04:00:06;;;;;;;5.15;1.80;;;6.00;99.90;;;;;;5111374;27;20122;-92
2023/04/13 04:02:32;;;;;;;6.25;1.70;;;5.80;99.90;;;;;;5117813;27;20125;-92
2023/04/13 04:04:58;;;;;;;5.78;2.50;;;5.80;99.90;;;;;;5106942;27;20122;-91
2023/04/13 04:07:24;;;;;;;5.20;1.77;;;5.90;99.90;;;;;;5109895;27;20043;-92
2023/04/13 04:09:50;;;;;;;5.20;1.90;;;5.80;99.90;;;;;;5106520;27;20047;-91
2023/04/13 04:12:15;;;;;;;6.43;2.03;;;5.90;99.90;;;;;;5097785;27;20553;-92
2023/04/13 04:14:41;;;;;;;5.10;2.72;;;5.80;99.90;;;;;;5098425;27;20086;-92
2023/04/13 04:17:07;;;;;;;6.97;2.17;;;6.30;99.90;;;;;;5097638;27;20039;-92
2023/04/13 04:19:32;;;;;;;11.52;2.55;;;5.80;99.90;;;;;;5110313;27;20046;-92
2023/04/13 04:22:02;;;;;;;5.18;2.28;;;6.30;99.90;;;;;;5118042;27;20095;-91
2023/04/13 04:24:28;;;;;;;5.05;2.53;;;5.90;99.90;;;;;;5116720;27;20098;-92
2023/04/13 04:26:54;;;;;;;7.82;2.33;;;5.90;99.90;;;;;;5111503;27;20122;-91
2023/04/13 04:29:21;;;;;;;6.30;2.42;;;5.90;99.90;;;;;;5111961;27;20034;-92
2023/04/13 04:31:52;;;;;;;5.03;2.28;;;5.90;99.90;;;;;;5119348;27;20087;-92
2023/04/13 04:34:18;;;;;;;5.43;2.20;;;5.80;99.90;;;;;;5117774;27;20167;-92
2023/04/13 04:36:44;;;;;;;4.00;2.30;;;6.60;99.90;;;;;;5103163;27;20043;-91
2023/04/13 04:39:13;;;;;;;6.30;2.63;;;5.80;99.90;;;;;;5103643;27;20045;-92
2023/04/13 04:41:38;;;;;;;5.32;2.60;;;5.70;99.90;;;;;;5104961;27;20043;-91
2023/04/13 04:44:06;;;;;;;5.68;2.67;;;6.20;99.90;;;;;;5102466;27;20047;-91
2023/04/13 04:46:32;;;;;;;5.35;2.60;;;6.30;99.90;;;;;;5097032;27;20070;-92
2023/04/13 04:48:59;;;;;;;5.40;2.53;;;5.50;99.90;;;;;;5111212;27;20073;-91
2023/04/13 04:51:26;;;;;;;7.30;2.42;;;5.50;99.90;;;;;;5104412;27;20141;-92
2023/04/13 04:53:52;;;;;;;5.32;2.10;;;5.40;99.90;;;;;;5117710;27;20458;-91
2023/04/13 04:56:20;;;;;;;8.45;2.50;;;5.50;99.90;;;;;;5117912;27;20039;-91
2023/04/13 04:58:45;;;;;;;4.38;2.60;;;5.50;99.90;;;;;;5103468;27;20043;-91
2023/04/13 05:01:11;;;;;;;5.68;2.72;;;5.30;99.90;;;;;;5109110;27;20084;-90
2023/04/13 05:03:37;;;;;;;4.25;2.85;;;5.40;99.90;;;;;;5097491;27;20080;-91
2023/04/13 05:06:03;;;;;;;6.15;3.03;;;5.30;99.90;;;;;;5112415;27;20044;-92
2023/04/13 05:08:28;;;;;;;4.53;2.78;;;5.30;99.90;;;;;;5108863;27;20494;-91
2023/04/13 05:10:54;;;;;;;6.95;3.10;;;5.60;99.90;;;;;;5109676;27;20051;-91
2023/04/13 05:13:20;;;;;;;5.30;2.90;;;5.80;99.90;;;;;;5109805;27;20038;-91
2023/04/13 05:15:46;;;;;;;6.75;3.00;;;6.10;99.90;;;;;;5105088;27;20045;-91
2023/04/13 05:18:14;;;;;;;7.00;3.15;;;6.30;99.90;;;;;;5103387;27;20110;-92
2023/04/13 05:20:40;;;;;;;6.53;3.85;;;5.90;99.90;;;;;;5097384;27;20043;-92
2023/04/13 05:23:06;;;;;;;8.02;4.22;;;6.00;99.90;;;;;;5110948;27;20129;-92
2023/04/13 05:25:31;;;;;;;7.15;3.83;;;6.30;99.90;;;;;;5116787;27;20138;-91
2023/04/13 05:27:57;;;;;;;7.57;4.35;;;5.60;99.90;;;;;;5115862;27;20509;-91
2023/04/13 05:30:23;;;;;;;6.75;4.38;;;5.60;99.90;;;;;;5117491;27;20129;-92
2023/04/13 05:32:48;;;;;;;11.43;5.05;;;5.70;99.90;;;;;;5111021;27;20393;-92
2023/04/13 05:35:14;;;;;;;10.20;5.63;;;5.70;99.90;;;;;;5111780;27;20050;-92
2023/04/13 05:37:40;;;;;;;8.80;5.05;;;5.80;99.90;;;;;;5116976;27;20415;-92
2023/04/13 05:40:10;;;;;;;7.18;5.18;;;6.20;99.90;;;;;;5103469;27;20625;-92
2023/04/13 05:42:36;;;;;;;7.28;4.22;;;5.90;99.90;;;;;;5112523;27;20034;-91
2023/04/13 05:45:02;;;;;;;10.13;5.03;;;5.90;99.90;;;;;;5116426;27;20565;-90
2023/04/13 05:47:28;;;;;;;6.97;4.35;;;5.90;99.90;;;;;;5100346;27;20039;-92
2023/04/13 05:49:54;;;;;;;11.68;5.50;;;6.20;99.90;;;;;;5112603;27;20046;-92
2023/04/13 05:52:20;;;;;;;7.72;4.47;;;5.90;99.90;;;;;;5109021;27;20070;-90
2023/04/13 05:54:46;;;;;;;9.90;4.80;;;6.50;99.90;;;;;;5113112;27;20085;-91
2023/04/13 05:57:12;;;;;;;9.77;4.97;;;5.90;99.90;;;;;;5117967;27;20043;-91
2023/04/13 05:59:37;;;;;;;9.45;4.53;;;6.10;99.90;;;;;;5112179;27;20046;-91
2023/04/13 06:02:03;;;;;;;11.00;4.82;;;6.00;99.90;;;;;;5106312;27;20039;-91
2023/04/13 06:04:30;;;;;;;7.80;4.60;;;6.00;99.90;;;;;;5100182;27;20082;-92
2023/04/13 06:06:56;;;;;;;8.90;4.20;;;6.40;99.90;;;;;;5111619;27;20046;-91
2023/04/13 06:09:22;;;;;;;7.80;4.75;;;6.10;99.90;;;;;;5099947;27;20046;-90
2023/04/13 06:11:48;;;;;;;11.63;4.68;;;6.20;99.90;;;;;;5108935;27;20070;-89
2023/04/13 06:14:16;;;;;;;14.77;5.38;;;6.30;99.90;;;;;;5110092;27;20078;-89
2023/04/13 06:16:42;;;;;;;10.05;3.90;;;6.40;99.90;;;;;;5112699;27;20043;-89
2023/04/13 06:19:08;;;;;;;12.25;4.65;;;6.70;99.90;;;;;;5109069;27;20088;-90
2023/04/13 06:21:33;;;;;;;9.88;4.10;;;6.60;99.90;;;;;;5105264;27;20150;-91
2023/04/13 06:23:59;;;;;;;8.80;3.83;;;6.80;99.90;;;;;;5115493;27;20053;-91
2023/04/13 06:26:27;;;;;;;10.85;3.47;;;6.80;99.90;;;;;;5110116;27;20441;-91
2023/04/13 06:28:53;;;;;;;13.63;4.53;;;6.90;99.90;;;;;;5100697;27;20047;-92
2023/04/13 06:31:22;;;;;;;7.43;4.00;;;7.30;99.90;;;;;;5106028;27;20571;-92
2023/04/13 06:33:48;;;;;;;12.23;4.13;;;6.70;99.90;;;;;;5119597;27;20085;-91
2023/04/13 06:36:14;;;;;;;12.02;4.30;;;6.90;99.90;;;;;;5115140;27;20047;-93
2023/04/13 06:38:40;;;;;;;7.95;3.30;;;7.00;99.90;;;;;;5114806;27;20062;-90
2023/04/13 06:41:05;;;;;;;9.90;3.90;;;7.20;99.90;;;;;;5115436;27;20346;-90
2023/04/13 06:43:31;;;;;;;7.60;3.28;;;6.80;99.90;;;;;;5114406;27;20075;-92
2023/04/13 06:45:58;;;;;;;9.68;3.60;;;6.80;99.90;;;;;;5111777;27;20078;-91
2023/04/13 06:48:24;;;;;;;9.10;3.83;;;6.90;99.90;;;;;;5111607;27;20039;-92
2023/04/13 06:50:51;;;;;;;8.18;3.47;;;6.90;99.90;;;;;;5111350;27;20043;-92
2023/04/13 06:53:17;;;;;;;7.70;3.50;;;7.00;99.90;;;;;;5102234;28;20050;-93
2023/04/13 06:55:43;;;;;;;8.45;3.05;;;7.00;99.90;;;;;;5097608;27;20428;-91
2023/04/13 06:58:15;;;;;;;9.13;3.00;;;7.00;99.90;;;;;;5103937;27;20524;-91
2023/04/13 07:00:41;;;;;;;8.95;2.53;;;6.90;99.90;;;;;;5111649;27;20039;-90
2023/04/13 07:03:07;;;;;;;6.28;2.20;;;6.90;99.90;;;;;;5108563;27;20181;-90
2023/04/13 07:05:33;;;;;;;10.40;3.25;;;7.00;99.90;;;;;;5112644;27;20035;-89
2023/04/13 07:07:58;;;;;;;10.38;3.67;;;6.80;99.90;;;;;;5109388;27;20304;-89
2023/04/13 07:10:24;;;;;;;7.45;3.33;;;6.80;99.90;;;;;;5113662;27;20065;-91
2023/04/13 07:12:50;;;;;;;8.77;3.72;;;6.80;99.90;;;;;;5119077;27;20122;-90
2023/04/13 07:15:16;;;;;;;15.73;4.40;;;6.80;99.90;;;;;;5105841;27;20126;-90
2023/04/13 07:17:41;;;;;;;8.25;4.43;;;6.80;99.90;;;;;;5118874;27;20037;-89
2023/04/13 07:20:08;;;;;;;17.83;4.35;;;6.80;99.90;;;;;;5117961;27;20035;-87
2023/04/13 07:22:34;;;;;;;10.27;4.15;;;6.80;99.90;;;;;;5117711;27;20046;-88
2023/04/13 07:25:00;;;;;;;12.02;4.60;;;6.80;99.90;;;;;;5137692;27;20087;-89
2023/04/13 07:27:26;;;;;;;13.43;4.53;;;6.80;99.90;;;;;;5125369;27;20043;-89
2023/04/13 07:29:54;;;;;;;10.95;4.25;;;6.90;99.90;;;;;;5114886;27;20155;-88
2023/04/13 07:32:19;;;;;;;9.57;3.78;;;6.90;99.90;;;;;;5122035;27;20601;-90
2023/04/13 07:34:46;;;;;;;11.00;4.22;;;6.90;99.90;;;;;;5118706;27;20043;-88
2023/04/13 07:37:12;;;;;;;12.73;4.57;;;7.00;99.90;;;;;;5128210;27;20045;-89
2023/04/13 07:39:39;;;;;;;13.88;4.80;;;7.00;99.90;;;;;;5112575;27;20444;-89
2023/04/13 07:42:05;;;;;;;11.18;4.50;;;7.00;99.90;;;;;;5126106;27;20090;-89
2023/04/13 07:44:30;;;;;;;11.23;4.78;;;7.00;99.90;;;;;;5116984;27;20035;-87
2023/04/13 07:46:56;;;;;;;14.20;4.38;;;7.00;99.90;;;;;;5111038;27;20042;-90
2023/04/13 07:49:22;;;;;;;8.93;4.25;;;7.10;99.90;;;;;;5128670;27;20442;-89
2023/04/13 07:51:51;;;;;;;13.48;4.10;;;7.10;99.90;;;;;;5117268;27;20038;-88
2023/04/13 07:54:16;;;;;;;13.35;4.18;;;7.30;99.90;;;;;;5118221;27;20233;-88
2023/04/13 07:56:42;;;;;;;11.07;3.25;;;7.30;99.90;;;;;;5136911;27;20126;-89
2023/04/13 07:59:08;;;;;;;12.30;3.22;;;7.50;99.90;;;;;;5135659;27;20046;-90
2023/04/13 08:01:34;;;;;;;10.70;3.00;;;7.60;99.90;;;;;;5137120;27;20397;-90
2023/04/13 08:04:00;;;;;;;13.35;2.83;;;7.70;99.90;;;;;;5137935;27;20053;-90
2023/04/13 08:06:26;;;;;;;10.55;3.10;;;7.90;99.90;;;;;;5115091;27;20039;-95
2023/04/13 08:08:52;;;;;;;13.20;2.40;;;8.10;99.90;;;;;;5114410;27;20042;-90
2023/04/13 08:11:18;;;;;;;9.30;2.05;;;8.50;99.90;;;;;;5106445;27;20047;-90
2023/04/13 08:13:44;;;;;;;10.48;2.53;;;8.80;99.90;;;;;;5096859;27;20101;-89
2023/04/13 08:16:10;;;;;;;7.50;1.88;;;8.90;99.90;;;;;;5108555;27;20038;-91
2023/04/13 08:18:36;;;;;;;10.18;2.42;;;8.90;99.90;;;;;;5104475;27;20899;-90
2023/04/13 08:21:09;;;;;;;8.77;1.60;;;8.90;99.90;;;;;;5106813;27;20043;-90
2023/04/13 08:23:36;;;;;;;11.63;2.28;;;8.70;99.90;;;;;;5101853;27;20474;-89
2023/04/13 08:26:02;;;;;;;10.40;2.17;;;8.60;99.90;;;;;;5118051;27;20038;-90
2023/04/13 08:28:28;;;;;;;9.30;1.67;;;8.40;99.90;;;;;;5097332;27;20039;-91
2023/04/13 08:30:54;;;;;;;6.18;1.40;;;8.30;99.90;;;;;;5097081;27;20387;-89
2023/04/13 08:33:20;;;;;;;6.80;1.73;;;8.20;99.90;;;;;;5116945;27;20066;-89
2023/04/13 08:35:46;;;;;;;6.45;1.67;;;8.30;99.90;;;;;;5103046;27;20604;-90
2023/04/13 08:38:12;;;;;;;5.18;1.25;;;8.10;99.90;;;;;;5103179;27;20459;-90
2023/04/13 08:40:39;;;;;;;10.27;1.98;;;8.10;99.90;;;;;;5103839;27;20042;-90
2023/04/13 08:43:06;;;;;;;7.25;1.83;;;8.30;99.90;;;;;;5096786;27;20035;-89
2023/04/13 08:45:33;;;;;;;8.35;2.00;;;8.30;99.90;;;;;;5109230;27;20465;-90
2023/04/13 08:48:00;;;;;;;4.28;1.30;;;8.40;99.90;;;;;;5103635;27;20117;-89
2023/04/13 08:50:27;;;;;;;10.27;1.63;;;8.40;99.90;;;;;;5116341;27;20035;-88
2023/04/13 08:52:53;;;;;;;6.65;1.70;;;8.40;99.90;;;;;;5116548;27;20042;-90
2023/04/13 08:55:19;;;;;;;7.03;2.38;;;8.40;99.90;;;;;;5116962;27;20110;-89
2023/04/13 08:57:48;;;;;;;5.60;1.45;;;8.50;99.90;;;;;;5102698;27;20027;-89
2023/04/13 09:00:16;;;;;;;6.90;2.00;;;8.50;99.90;;;;;;5116645;27;20050;-90
2023/04/13 09:02:47;;;;;;;7.15;1.80;;;8.50;99.90;;;;;;5104809;27;20500;-88
2023/04/13 09:05:14;;;;;;;7.60;1.38;;;8.40;99.90;;;;;;5115647;27;20190;-91
2023/04/13 09:07:42;;;;;;;7.43;1.40;;;8.40;99.90;;;;;;5120515;27;20053;-90
2023/04/13 09:10:08;;;;;;;6.07;1.45;;;8.50;99.90;;;;;;5116814;27;20482;-90
2023/04/13 09:12:34;;;;;;;5.25;1.10;;;8.70;99.90;;;;;;5106589;27;20162;-89
2023/04/13 09:15:02;;;;;;;4.85;0.95;;;8.80;99.90;;;;;;5109520;27;20074;-89
2023/04/13 09:17:31;;;;;;;4.20;0.90;;;8.90;99.90;;;;;;5104172;27;20125;-88
2023/04/13 09:20:10;;;;;;;5.70;1.15;;;8.90;99.90;;;;;;5100245;27;20049;-89
2023/04/13 09:22:36;;;;;;;4.72;1.38;;;8.90;99.90;;;;;;5094950;27;20051;-89
2023/04/13 09:25:04;;;;;;;8.23;1.13;;;9.00;99.90;;;;;;5095507;27;20474;-89
2023/04/13 09:27:30;;;;;;;6.55;1.20;;;9.00;99.90;;;;;;5102664;27;20061;-89
2023/04/13 09:29:56;;;;;;;5.28;0.98;;;9.10;99.90;;;;;;5112489;27;20158;-89
2023/04/13 09:32:23;;;;;;;4.88;1.00;;;9.20;99.90;;;;;;5099903;28;20089;-89
2023/04/13 09:34:57;;;;;;;5.20;1.13;;;9.30;99.90;;;;;;5092822;28;20123;-88
2023/04/13 09:37:23;;;;;;;3.78;1.00;;;9.40;99.90;;;;;;5090526;28;20040;-89
2023/04/13 09:39:49;;;;;;;4.40;1.20;;;9.30;99.90;;;;;;5091600;28;20081;-89
2023/04/13 09:42:17;;;;;;;5.82;1.33;;;9.20;99.90;;;;;;5103746;27;20047;-88
2023/04/13 09:44:42;;;;;;;5.75;1.35;;;9.20;99.90;;;;;;5098882;27;20028;-89
2023/04/13 09:47:08;;;;;;;3.63;1.05;;;9.10;99.90;;;;;;5111658;27;20042;-89
2023/04/13 09:49:38;;;;;;;6.80;1.35;;;8.90;99.90;;;;;;5100620;27;20127;-90
2023/04/13 09:52:07;;;;;;;4.50;1.00;;;8.80;99.90;;;;;;5112827;27;20043;-91
2023/04/13 09:54:32;;;;;;;8.38;1.02;;;8.70;99.90;;;;;;5105539;28;20044;-90
2023/04/13 09:56:58;;;;;;;8.07;1.08;;;8.50;99.90;;;;;;5092396;28;20040;-90
2023/04/13 09:59:26;;;;;;;6.93;1.17;;;8.40;99.90;;;;;;5091372;28;20044;-90
2023/04/13 10:01:53;;;;;;;5.45;0.60;;;8.40;99.90;;;;;;5092039;28;20044;-91
2023/04/13 10:04:19;;;;;;;2.38;0.45;;;8.50;99.90;;;;;;5092067;28;20047;-89
2023/04/13 10:06:46;;;;;;;2.80;0.30;;;8.40;99.90;;;;;;5106272;27;20043;-91
2023/04/13 10:09:13;;;;;;;0.77;0.30;;;8.30;99.90;;;;;;5115695;27;20069;-92
2023/04/13 10:11:49;;;;;;;2.42;0.40;;;8.20;99.90;;;;;;5104964;27;20385;-91
2023/04/13 10:14:20;;;;;;;4.05;0.50;;;8.00;99.90;;;;;;5110052;27;20103;-92
2023/04/13 10:17:06;;;;;;;1.75;0.30;;;7.90;99.90;;;;;;5103096;27;20514;-91
2023/04/13 10:19:41;;;;;;;1.73;0.28;;;7.90;99.90;;;;;;5101625;27;20055;-91
2023/04/13 10:22:08;;;;;;;1.73;0.30;;;8.00;99.90;;;;;;5102894;27;20031;-90
2023/04/13 10:24:35;;;;;;;0.68;0.25;;;8.30;99.90;;;;;;5112162;27;20053;-96
2023/04/13 10:27:17;;;;;;;1.95;0.40;;;8.50;99.90;;;;;;5101491;27;20574;-90
2023/04/13 10:29:43;;;;;;;2.90;0.20;;;8.80;99.90;;;;;;5112674;27;20058;-90
2023/04/13 10:32:20;;;;;;;3.95;0.35;;;9.20;99.90;;;;;;5112242;27;20636;-91
2023/04/13 10:34:46;;;;;;;4.38;0.30;;;9.50;99.90;;;;;;5110360;27;20043;-91
2023/04/13 10:37:18;;;;;;;2.00;0.38;;;9.70;99.90;;;;;;5110671;27;20518;-90
2023/04/13 10:39:44;;;;;;;1.33;0.30;;;9.90;99.90;;;;;;5110415;27;20043;-90
2023/04/13 10:42:12;;;;;;;2.55;0.40;;;10.00;99.90;;;;;;5112102;27;20038;-92
2023/04/13 10:44:45;;;;;;;2.65;0.43;;;10.30;99.90;;;;;;5110503;27;20039;-91
2023/04/13 10:47:16;;;;;;;3.03;0.50;;;10.00;99.90;;;;;;5112008;27;20045;-91
2023/04/13 10:49:43;;;;;;;3.60;0.73;;;10.00;99.90;;;;;;5100897;28;20099;-90
2023/04/13 10:52:10;;;;;;;3.10;0.60;;;10.10;99.90;;;;;;5108553;27;20434;-90
2023/04/13 10:54:37;;;;;;;3.20;0.60;;;10.10;99.90;;;;;;5108605;28;20043;-91
2023/04/13 10:57:05;;;;;;;3.35;0.60;;;10.30;99.90;;;;;;5108001;27;20038;-91
2023/04/13 10:59:36;;;;;;;2.63;0.32;;;10.50;99.90;;;;;;5108949;27;20133;-91
2023/04/13 11:02:08;;;;;;;2.55;0.50;;;10.70;99.90;;;;;;5119623;27;20046;-91
2023/04/13 11:04:38;;;;;;;2.78;0.50;;;10.90;99.90;;;;;;5115612;27;20047;-91
2023/04/13 11:07:06;;;;;;;3.85;0.50;;;11.00;99.90;;;;;;5115228;27;20070;-91
2023/04/13 11:09:32;;;;;;;2.28;0.52;;;11.10;99.90;;;;;;5105178;28;20047;-91
2023/04/13 11:11:58;;;;;;;4.05;0.55;;;11.00;99.90;;;;;;5094197;28;20066;-92
2023/04/13 11:14:23;;;;;;;3.80;0.68;;;10.70;99.90;;;;;;5111582;28;20131;-90
2023/04/13 11:16:49;;;;;;;4.72;0.80;;;10.50;99.90;;;;;;5095181;27;20042;-91
2023/04/13 11:19:15;;;;;;;4.63;0.75;;;10.20;99.90;;;;;;5094417;28;20043;-90
2023/04/13 11:21:43;;;;;;;5.47;1.17;;;9.90;99.90;;;;;;5097937;27;20426;-92
2023/04/13 11:24:09;;;;;;;4.82;0.70;;;9.70;99.90;;;;;;5104972;28;20096;-92
2023/04/13 11:26:37;;;;;;;4.32;0.73;;;9.80;99.90;;;;;;5098000;27;20046;-91
2023/04/13 11:29:03;;;;;;;3.83;0.80;;;9.60;99.90;;;;;;5116023;27;20047;-92
2023/04/13 11:31:37;;;;;;;7.13;1.13;;;9.50;99.90;;;;;;5101013;27;20043;-91
2023/04/13 11:34:05;;;;;;;7.43;1.27;;;9.90;99.90;;;;;;5115486;27;20095;-92
2023/04/13 11:36:31;;;;;;;4.97;0.98;;;9.80;99.90;;;;;;5095923;28;20047;-91
2023/04/13 11:38:59;;;;;;;8.70;1.17;;;10.00;99.90;;;;;;5106047;27;20066;-92
2023/04/13 11:41:27;;;;;;;13.20;1.85;;;10.10;99.90;;;;;;5110081;28;20055;-91
2023/04/13 11:43:53;;;;;;;15.88;2.05;;;10.20;99.90;;;;;;5095292;28;20078;-92
2023/04/13 11:46:23;;;;;;;9.52;1.45;;;10.40;99.90;;;;;;5112481;27;20051;-91
2023/04/13 11:48:51;;;;;;;9.93;1.95;;;10.60;99.90;;;;;;5118336;27;20057;-91
2023/04/13 11:51:19;;;;;;;10.60;1.95;;;10.70;99.90;;;;;;5118251;27;20068;-92
2023/04/13 11:53:45;;;;;;;14.32;2.58;;;10.70;99.90;;;;;;5104699;27;20043;-92
2023/04/13 11:56:13;;;;;;;9.15;2.00;;;10.50;99.90;;;;;;5112500;27;20039;-92
2023/04/13 11:58:39;;;;;;;11.93;2.50;;;10.50;99.90;;;;;;5099158;27;20039;-93
2023/04/13 12:01:07;;;;;;;12.82;2.78;;;10.40;99.90;;;;;;5101766;27;20059;-91
2023/04/13 12:03:34;;;;;;;17.13;2.97;;;10.60;99.90;;;;;;5124463;27;20039;-92
2023/04/13 12:06:00;;;;;;;23.75;3.25;;;10.80;99.90;;;;;;5105576;27;20124;-92
2023/04/13 12:08:28;;;;;;;16.55;2.58;;;11.00;99.90;;;;;;5104820;27;20055;-92
2023/04/13 12:10:55;;;;;;;13.43;2.78;;;11.10;99.90;;;;;;5110212;27;20050;-92
2023/04/13 12:13:21;;;;;;;12.82;1.92;;;11.30;99.90;;;;;;5119058;27;20050;-91
2023/04/13 12:15:48;;;;;;;15.73;2.47;;;11.40;99.90;;;;;;5105917;27;20053;-93
2023/04/13 12:18:15;;;;;;;13.35;1.80;;;11.40;99.90;;;;;;5104779;27;20054;-92
2023/04/13 12:20:43;;;;;;;11.30;2.25;;;11.20;99.90;;;;;;5108522;27;20142;-91
2023/04/13 12:23:18;;;;;;;12.95;2.00;;;11.00;99.90;;;;;;5111759;27;20031;-92
2023/04/13 12:25:56;;;;;;;15.25;2.58;;;10.70;99.90;;;;;;5097487;27;20494;-91
2023/04/13 12:28:26;;;;;;;10.73;1.60;;;10.50;99.90;;;;;;5081108;28;20067;-93
2023/04/13 12:30:52;;;;;;;18.92;2.28;;;10.40;99.90;;;;;;5074725;28;20043;-95
2023/04/13 12:33:18;;;;;;;11.60;2.15;;;10.30;99.90;;;;;;5080146;28;20039;-91
2023/04/13 12:35:43;;;;;;;14.20;2.38;;;10.30;99.90;;;;;;5093305;28;20050;-92
2023/04/13 12:38:09;;;;;;;11.25;2.20;;;10.40;99.90;;;;;;5094122;28;20050;-91
2023/04/13 12:40:35;;;;;;;8.70;1.65;;;10.40;99.90;;;;;;5082134;28;20079;-92
2023/04/13 12:43:00;;;;;;;14.48;2.22;;;10.40;99.90;;;;;;5078402;28;20032;-92
2023/04/13 12:45:27;;;;;;;11.82;1.92;;;10.30;99.90;;;;;;5081966;28;20040;-91
2023/04/13 12:47:53;;;;;;;12.68;2.25;;;10.30;99.90;;;;;;5078336;28;20043;-91
2023/04/13 12:50:18;;;;;;;9.88;1.75;;;10.40;99.90;;;;;;5089313;28;20081;-90
2023/04/13 12:52:44;;;;;;;10.60;2.30;;;10.30;99.90;;;;;;5089943;28;20069;-90